sensor_id;sensor_type;location;lat;lon;timestamp;P1;durP1;ratioP1;P2;durP2;ratioP2
14965;SDS011;7577;45.226;5.798;2023-03-20T00:01:12;6.13;;;3.20;;
14965;SDS011;7577;45.226;5.798;2023-03-20T00:03:44;5.37;;;3.30;;
14965;SDS011;7577;45.226;5.798;2023-03-20T00:06:15;5.03;;;3.47;;
14965;SDS011;7577;45.226;5.798;2023-03-20T00:08:48;5.63;;;3.10;;
14965;SDS011;7577;45.226;5.798;2023-03-20T00:11:24;5.17;;;3.47;;
14965;SDS011;7577;45.226;5.798;2023-03-20T00:14:03;5.07;;;2.90;;
14965;SDS011;7577;45.226;5.798;2023-03-20T00:16:35;3.90;;;2.80;;
14965;SDS011;7577;45.226;5.798;2023-03-20T00:19:14;4.93;;;2.63;;
14965;SDS011;7577;45.226;5.798;2023-03-20T00:21:45;4.63;;;3.03;;
14965;SDS011;7577;45.226;5.798;2023-03-20T00:24:16;4.33;;;2.63;;
14965;SDS011;7577;45.226;5.798;2023-03-20T00:26:47;4.67;;;2.63;;
14965;SDS011;7577;45.226;5.798;2023-03-20T00:29:20;4.00;;;2.63;;
14965;SDS011;7577;45.226;5.798;2023-03-20T00:31:53;4.40;;;2.40;;
14965;SDS011;7577;45.226;5.798;2023-03-20T00:34:37;3.40;;;2.30;;
14965;SDS011;7577;45.226;5.798;2023-03-20T00:37:08;5.10;;;2.67;;
14965;SDS011;7577;45.226;5.798;2023-03-20T00:39:38;4.27;;;2.77;;
14965;SDS011;7577;45.226;5.798;2023-03-20T00:42:18;4.07;;;2.60;;
14965;SDS011;7577;45.226;5.798;2023-03-20T00:44:51;3.37;;;2.50;;
14965;SDS011;7577;45.226;5.798;2023-03-20T00:47:24;3.83;;;2.50;;
14965;SDS011;7577;45.226;5.798;2023-03-20T00:49:58;4.03;;;2.57;;
14965;SDS011;7577;45.226;5.798;2023-03-20T00:52:29;2.90;;;2.30;;
14965;SDS011;7577;45.226;5.798;2023-03-20T00:54:59;4.00;;;2.20;;
14965;SDS011;7577;45.226;5.798;2023-03-20T00:57:30;3.37;;;2.30;;
14965;SDS011;7577;45.226;5.798;2023-03-20T01:00:17;3.23;;;2.27;;
14965;SDS011;7577;45.226;5.798;2023-03-20T01:02:55;4.60;;;2.13;;
14965;SDS011;7577;45.226;5.798;2023-03-20T01:05:32;2.90;;;2.00;;
14965;SDS011;7577;45.226;5.798;2023-03-20T01:08:04;2.93;;;2.07;;
14965;SDS011;7577;45.226;5.798;2023-03-20T01:10:39;2.97;;;2.10;;
14965;SDS011;7577;45.226;5.798;2023-03-20T01:13:15;3.33;;;2.30;;
14965;SDS011;7577;45.226;5.798;2023-03-20T01:15:49;3.43;;;2.00;;
14965;SDS011;7577;45.226;5.798;2023-03-20T01:18:21;3.80;;;2.13;;
14965;SDS011;7577;45.226;5.798;2023-03-20T01:20:59;2.73;;;1.70;;
14965;SDS011;7577;45.226;5.798;2023-03-20T01:23:29;2.33;;;1.80;;
14965;SDS011;7577;45.226;5.798;2023-03-20T01:26:00;2.60;;;1.90;;
14965;SDS011;7577;45.226;5.798;2023-03-20T01:28:30;1.90;;;1.53;;
14965;SDS011;7577;45.226;5.798;2023-03-20T01:31:00;3.23;;;1.90;;
14965;SDS011;7577;45.226;5.798;2023-03-20T01:33:30;2.70;;;1.70;;
14965;SDS011;7577;45.226;5.798;2023-03-20T01:36:00;2.93;;;1.67;;
14965;SDS011;7577;45.226;5.798;2023-03-20T01:38:32;2.30;;;1.73;;
14965;SDS011;7577;45.226;5.798;2023-03-20T01:41:11;2.80;;;1.90;;
14965;SDS011;7577;45.226;5.798;2023-03-20T01:43:43;2.60;;;1.80;;
14965;SDS011;7577;45.226;5.798;2023-03-20T01:46:14;1.80;;;1.40;;
14965;SDS011;7577;45.226;5.798;2023-03-20T01:49:03;2.53;;;1.43;;
14965;SDS011;7577;45.226;5.798;2023-03-20T01:51:41;2.80;;;1.30;;
14965;SDS011;7577;45.226;5.798;2023-03-20T01:54:12;2.47;;;1.50;;
14965;SDS011;7577;45.226;5.798;2023-03-20T01:56:45;2.70;;;1.60;;
14965;SDS011;7577;45.226;5.798;2023-03-20T01:59:19;2.77;;;1.63;;
14965;SDS011;7577;45.226;5.798;2023-03-20T02:01:57;1.83;;;1.50;;
14965;SDS011;7577;45.226;5.798;2023-03-20T02:04:28;2.20;;;1.60;;
14965;SDS011;7577;45.226;5.798;2023-03-20T02:07:01;1.83;;;1.40;;
14965;SDS011;7577;45.226;5.798;2023-03-20T02:09:39;2.03;;;1.50;;
14965;SDS011;7577;45.226;5.798;2023-03-20T02:12:09;2.43;;;1.73;;
14965;SDS011;7577;45.226;5.798;2023-03-20T02:14:53;3.20;;;1.60;;
14965;SDS011;7577;45.226;5.798;2023-03-20T02:17:25;2.13;;;1.50;;
14965;SDS011;7577;45.226;5.798;2023-03-20T02:20:00;2.50;;;1.37;;
14965;SDS011;7577;45.226;5.798;2023-03-20T02:22:44;2.03;;;1.60;;
14965;SDS011;7577;45.226;5.798;2023-03-20T02:28:57;2.33;;;1.30;;
14965;SDS011;7577;45.226;5.798;2023-03-20T02:31:43;2.13;;;1.17;;
14965;SDS011;7577;45.226;5.798;2023-03-20T02:37:20;2.00;;;1.40;;
14965;SDS011;7577;45.226;5.798;2023-03-20T02:40:10;1.50;;;1.13;;
14965;SDS011;7577;45.226;5.798;2023-03-20T02:42:47;1.97;;;1.37;;
14965;SDS011;7577;45.226;5.798;2023-03-20T02:45:20;1.63;;;1.10;;
14965;SDS011;7577;45.226;5.798;2023-03-20T02:47:55;2.03;;;1.30;;
14965;SDS011;7577;45.226;5.798;2023-03-20T02:50:27;1.87;;;1.10;;
14965;SDS011;7577;45.226;5.798;2023-03-20T02:53:03;1.63;;;1.10;;
14965;SDS011;7577;45.226;5.798;2023-03-20T02:55:38;1.20;;;1.10;;
14965;SDS011;7577;45.226;5.798;2023-03-20T02:58:11;1.70;;;1.10;;
14965;SDS011;7577;45.226;5.798;2023-03-20T03:00:46;2.17;;;1.00;;
14965;SDS011;7577;45.226;5.798;2023-03-20T03:03:18;1.47;;;1.10;;
14965;SDS011;7577;45.226;5.798;2023-03-20T03:05:58;1.33;;;1.00;;
14965;SDS011;7577;45.226;5.798;2023-03-20T03:08:32;1.03;;;0.93;;
14965;SDS011;7577;45.226;5.798;2023-03-20T03:11:05;1.10;;;0.83;;
14965;SDS011;7577;45.226;5.798;2023-03-20T03:13:37;2.13;;;1.03;;
14965;SDS011;7577;45.226;5.798;2023-03-20T03:16:11;1.57;;;0.90;;
14965;SDS011;7577;45.226;5.798;2023-03-20T03:18:43;1.43;;;1.10;;
14965;SDS011;7577;45.226;5.798;2023-03-20T03:21:22;1.20;;;1.00;;
14965;SDS011;7577;45.226;5.798;2023-03-20T03:23:54;1.63;;;1.07;;
14965;SDS011;7577;45.226;5.798;2023-03-20T03:26:26;1.10;;;1.00;;
14965;SDS011;7577;45.226;5.798;2023-03-20T03:29:08;1.40;;;1.30;;
14965;SDS011;7577;45.226;5.798;2023-03-20T03:31:39;2.03;;;1.03;;
14965;SDS011;7577;45.226;5.798;2023-03-20T03:34:11;0.80;;;0.80;;
14965;SDS011;7577;45.226;5.798;2023-03-20T03:36:44;1.87;;;1.00;;
14965;SDS011;7577;45.226;5.798;2023-03-20T03:39:20;1.27;;;1.00;;
14965;SDS011;7577;45.226;5.798;2023-03-20T03:41:55;1.20;;;1.00;;
14965;SDS011;7577;45.226;5.798;2023-03-20T03:44:29;1.33;;;0.90;;
14965;SDS011;7577;45.226;5.798;2023-03-20T03:47:02;1.60;;;0.97;;
14965;SDS011;7577;45.226;5.798;2023-03-20T03:49:35;1.57;;;1.13;;
14965;SDS011;7577;45.226;5.798;2023-03-20T03:52:09;2.00;;;1.07;;
14965;SDS011;7577;45.226;5.798;2023-03-20T03:54:42;1.60;;;1.00;;
14965;SDS011;7577;45.226;5.798;2023-03-20T03:57:15;3.17;;;1.00;;
14965;SDS011;7577;45.226;5.798;2023-03-20T03:59:48;1.67;;;1.10;;
14965;SDS011;7577;45.226;5.798;2023-03-20T04:02:20;2.67;;;0.97;;
14965;SDS011;7577;45.226;5.798;2023-03-20T04:04:58;3.30;;;1.20;;
14965;SDS011;7577;45.226;5.798;2023-03-20T04:07:31;5.57;;;1.10;;
14965;SDS011;7577;45.226;5.798;2023-03-20T04:10:01;2.77;;;0.73;;
14965;SDS011;7577;45.226;5.798;2023-03-20T04:12:33;2.40;;;1.03;;
14965;SDS011;7577;45.226;5.798;2023-03-20T04:15:06;3.33;;;1.10;;
14965;SDS011;7577;45.226;5.798;2023-03-20T04:17:37;3.60;;;1.03;;
14965;SDS011;7577;45.226;5.798;2023-03-20T04:20:09;1.43;;;0.93;;
14965;SDS011;7577;45.226;5.798;2023-03-20T04:22:39;1.30;;;0.60;;
14965;SDS011;7577;45.226;5.798;2023-03-20T04:25:14;2.70;;;0.93;;
14965;SDS011;7577;45.226;5.798;2023-03-20T04:27:46;2.80;;;1.00;;
14965;SDS011;7577;45.226;5.798;2023-03-20T04:30:17;1.20;;;0.70;;
14965;SDS011;7577;45.226;5.798;2023-03-20T04:32:48;1.87;;;1.07;;
14965;SDS011;7577;45.226;5.798;2023-03-20T04:35:18;2.90;;;0.93;;
14965;SDS011;7577;45.226;5.798;2023-03-20T04:37:48;1.27;;;0.83;;
14965;SDS011;7577;45.226;5.798;2023-03-20T04:40:19;1.20;;;0.80;;
14965;SDS011;7577;45.226;5.798;2023-03-20T04:42:49;1.57;;;0.80;;
14965;SDS011;7577;45.226;5.798;2023-03-20T04:45:20;1.40;;;0.90;;
14965;SDS011;7577;45.226;5.798;2023-03-20T04:47:50;3.30;;;0.90;;
14965;SDS011;7577;45.226;5.798;2023-03-20T04:50:20;1.23;;;0.90;;
14965;SDS011;7577;45.226;5.798;2023-03-20T04:52:50;1.53;;;0.73;;
14965;SDS011;7577;45.226;5.798;2023-03-20T04:55:20;2.70;;;1.13;;
14965;SDS011;7577;45.226;5.798;2023-03-20T04:57:50;1.33;;;0.87;;
14965;SDS011;7577;45.226;5.798;2023-03-20T05:00:23;2.10;;;0.70;;
14965;SDS011;7577;45.226;5.798;2023-03-20T05:02:53;2.30;;;0.87;;
14965;SDS011;7577;45.226;5.798;2023-03-20T05:05:23;1.57;;;1.10;;
14965;SDS011;7577;45.226;5.798;2023-03-20T05:07:54;1.20;;;0.80;;
14965;SDS011;7577;45.226;5.798;2023-03-20T05:10:24;1.33;;;0.60;;
14965;SDS011;7577;45.226;5.798;2023-03-20T05:12:54;0.90;;;0.77;;
14965;SDS011;7577;45.226;5.798;2023-03-20T05:15:25;1.17;;;0.90;;
14965;SDS011;7577;45.226;5.798;2023-03-20T05:17:55;1.00;;;0.80;;
14965;SDS011;7577;45.226;5.798;2023-03-20T05:20:25;1.23;;;0.80;;
14965;SDS011;7577;45.226;5.798;2023-03-20T05:22:55;1.03;;;0.70;;
14965;SDS011;7577;45.226;5.798;2023-03-20T05:25:25;1.33;;;0.80;;
14965;SDS011;7577;45.226;5.798;2023-03-20T05:28:03;1.17;;;0.87;;
14965;SDS011;7577;45.226;5.798;2023-03-20T05:30:34;1.53;;;0.80;;
14965;SDS011;7577;45.226;5.798;2023-03-20T05:33:04;0.83;;;0.60;;
14965;SDS011;7577;45.226;5.798;2023-03-20T05:35:34;1.53;;;0.97;;
14965;SDS011;7577;45.226;5.798;2023-03-20T05:38:04;1.53;;;1.00;;
14965;SDS011;7577;45.226;5.798;2023-03-20T05:40:34;1.80;;;0.70;;
14965;SDS011;7577;45.226;5.798;2023-03-20T05:43:05;2.70;;;1.10;;
14965;SDS011;7577;45.226;5.798;2023-03-20T05:45:46;4.57;;;1.10;;
14965;SDS011;7577;45.226;5.798;2023-03-20T05:48:16;2.63;;;1.03;;
14965;SDS011;7577;45.226;5.798;2023-03-20T05:50:46;1.67;;;1.00;;
14965;SDS011;7577;45.226;5.798;2023-03-20T05:53:18;1.50;;;1.20;;
14965;SDS011;7577;45.226;5.798;2023-03-20T05:55:48;1.00;;;0.90;;
14965;SDS011;7577;45.226;5.798;2023-03-20T05:58:18;1.47;;;0.93;;
14965;SDS011;7577;45.226;5.798;2023-03-20T06:00:48;2.03;;;1.00;;
14965;SDS011;7577;45.226;5.798;2023-03-20T06:03:29;2.03;;;0.70;;
14965;SDS011;7577;45.226;5.798;2023-03-20T06:05:59;2.33;;;1.10;;
14965;SDS011;7577;45.226;5.798;2023-03-20T06:08:29;1.83;;;1.10;;
14965;SDS011;7577;45.226;5.798;2023-03-20T06:10:59;1.53;;;0.70;;
14965;SDS011;7577;45.226;5.798;2023-03-20T06:13:30;2.33;;;1.00;;
14965;SDS011;7577;45.226;5.798;2023-03-20T06:16:00;2.67;;;0.90;;
14965;SDS011;7577;45.226;5.798;2023-03-20T06:18:31;2.77;;;1.03;;
14965;SDS011;7577;45.226;5.798;2023-03-20T06:21:01;2.10;;;1.03;;
14965;SDS011;7577;45.226;5.798;2023-03-20T06:23:41;2.10;;;0.93;;
14965;SDS011;7577;45.226;5.798;2023-03-20T06:26:11;2.13;;;0.90;;
14965;SDS011;7577;45.226;5.798;2023-03-20T06:28:41;2.90;;;0.90;;
14965;SDS011;7577;45.226;5.798;2023-03-20T06:31:12;2.13;;;0.80;;
14965;SDS011;7577;45.226;5.798;2023-03-20T06:33:42;1.43;;;1.00;;
14965;SDS011;7577;45.226;5.798;2023-03-20T06:36:13;1.07;;;0.70;;
14965;SDS011;7577;45.226;5.798;2023-03-20T06:38:43;2.17;;;0.90;;
14965;SDS011;7577;45.226;5.798;2023-03-20T06:41:14;3.73;;;1.10;;
14965;SDS011;7577;45.226;5.798;2023-03-20T06:43:51;3.23;;;1.10;;
14965;SDS011;7577;45.226;5.798;2023-03-20T06:46:22;1.73;;;0.73;;
14965;SDS011;7577;45.226;5.798;2023-03-20T06:48:52;2.13;;;0.90;;
14965;SDS011;7577;45.226;5.798;2023-03-20T06:51:29;1.60;;;0.90;;
14965;SDS011;7577;45.226;5.798;2023-03-20T06:54:00;1.17;;;0.87;;
14965;SDS011;7577;45.226;5.798;2023-03-20T06:56:30;2.17;;;1.03;;
14965;SDS011;7577;45.226;5.798;2023-03-20T06:59:00;1.03;;;0.70;;
14965;SDS011;7577;45.226;5.798;2023-03-20T07:01:30;1.97;;;1.00;;
14965;SDS011;7577;45.226;5.798;2023-03-20T07:04:02;3.63;;;1.30;;
14965;SDS011;7577;45.226;5.798;2023-03-20T07:06:33;4.60;;;1.00;;
14965;SDS011;7577;45.226;5.798;2023-03-20T07:09:04;1.73;;;1.10;;
14965;SDS011;7577;45.226;5.798;2023-03-20T07:11:34;1.70;;;0.80;;
14965;SDS011;7577;45.226;5.798;2023-03-20T07:14:04;5.00;;;0.73;;
14965;SDS011;7577;45.226;5.798;2023-03-20T07:16:34;1.90;;;0.80;;
14965;SDS011;7577;45.226;5.798;2023-03-20T07:19:04;2.07;;;0.90;;
14965;SDS011;7577;45.226;5.798;2023-03-20T07:21:35;1.80;;;0.90;;
14965;SDS011;7577;45.226;5.798;2023-03-20T07:24:13;1.83;;;0.97;;
14965;SDS011;7577;45.226;5.798;2023-03-20T07:26:43;0.60;;;0.60;;
14965;SDS011;7577;45.226;5.798;2023-03-20T07:29:13;4.80;;;1.00;;
14965;SDS011;7577;45.226;5.798;2023-03-20T07:31:43;3.30;;;0.90;;
14965;SDS011;7577;45.226;5.798;2023-03-20T07:34:14;3.33;;;0.90;;
14965;SDS011;7577;45.226;5.798;2023-03-20T07:36:51;2.23;;;0.87;;
14965;SDS011;7577;45.226;5.798;2023-03-20T07:39:22;2.70;;;0.90;;
14965;SDS011;7577;45.226;5.798;2023-03-20T07:41:53;3.00;;;1.10;;
14965;SDS011;7577;45.226;5.798;2023-03-20T07:44:24;1.23;;;0.80;;
14965;SDS011;7577;45.226;5.798;2023-03-20T07:46:54;1.07;;;0.80;;
14965;SDS011;7577;45.226;5.798;2023-03-20T07:49:25;1.10;;;0.80;;
14965;SDS011;7577;45.226;5.798;2023-03-20T07:51:55;1.67;;;0.70;;
14965;SDS011;7577;45.226;5.798;2023-03-20T07:54:25;3.60;;;1.00;;
14965;SDS011;7577;45.226;5.798;2023-03-20T07:56:55;1.17;;;0.90;;
14965;SDS011;7577;45.226;5.798;2023-03-20T07:59:25;0.60;;;0.60;;
14965;SDS011;7577;45.226;5.798;2023-03-20T08:01:55;0.90;;;0.80;;
14965;SDS011;7577;45.226;5.798;2023-03-20T08:04:25;1.33;;;0.80;;
14965;SDS011;7577;45.226;5.798;2023-03-20T08:06:56;1.23;;;0.90;;
14965;SDS011;7577;45.226;5.798;2023-03-20T08:09:26;1.47;;;0.77;;
14965;SDS011;7577;45.226;5.798;2023-03-20T08:11:56;1.30;;;1.00;;
14965;SDS011;7577;45.226;5.798;2023-03-20T08:14:26;1.27;;;0.90;;
14965;SDS011;7577;45.226;5.798;2023-03-20T08:16:57;1.93;;;0.80;;
14965;SDS011;7577;45.226;5.798;2023-03-20T08:19:28;1.40;;;0.73;;
14965;SDS011;7577;45.226;5.798;2023-03-20T08:21:58;2.03;;;1.10;;
14965;SDS011;7577;45.226;5.798;2023-03-20T08:24:35;2.43;;;0.90;;
14965;SDS011;7577;45.226;5.798;2023-03-20T08:27:05;1.47;;;0.90;;
14965;SDS011;7577;45.226;5.798;2023-03-20T08:29:36;1.07;;;0.90;;
14965;SDS011;7577;45.226;5.798;2023-03-20T08:32:06;1.83;;;0.80;;
14965;SDS011;7577;45.226;5.798;2023-03-20T08:34:36;1.03;;;0.90;;
14965;SDS011;7577;45.226;5.798;2023-03-20T08:37:07;1.53;;;0.80;;
14965;SDS011;7577;45.226;5.798;2023-03-20T08:39:38;1.50;;;1.00;;
14965;SDS011;7577;45.226;5.798;2023-03-20T08:42:09;1.80;;;0.90;;
14965;SDS011;7577;45.226;5.798;2023-03-20T08:44:39;2.07;;;0.90;;
14965;SDS011;7577;45.226;5.798;2023-03-20T08:47:10;1.00;;;0.73;;
14965;SDS011;7577;45.226;5.798;2023-03-20T08:49:40;1.50;;;0.83;;
14965;SDS011;7577;45.226;5.798;2023-03-20T08:52:11;1.33;;;0.80;;
14965;SDS011;7577;45.226;5.798;2023-03-20T08:54:41;1.80;;;0.97;;
14965;SDS011;7577;45.226;5.798;2023-03-20T08:57:12;1.00;;;0.83;;
14965;SDS011;7577;45.226;5.798;2023-03-20T08:59:42;1.10;;;0.90;;
14965;SDS011;7577;45.226;5.798;2023-03-20T09:02:12;2.20;;;1.10;;
14965;SDS011;7577;45.226;5.798;2023-03-20T09:04:42;1.30;;;0.83;;
14965;SDS011;7577;45.226;5.798;2023-03-20T09:07:13;1.10;;;1.00;;
14965;SDS011;7577;45.226;5.798;2023-03-20T09:09:43;1.43;;;0.73;;
14965;SDS011;7577;45.226;5.798;2023-03-20T09:12:13;1.37;;;1.00;;
14965;SDS011;7577;45.226;5.798;2023-03-20T09:14:43;2.27;;;0.90;;
14965;SDS011;7577;45.226;5.798;2023-03-20T09:17:13;1.90;;;1.00;;
14965;SDS011;7577;45.226;5.798;2023-03-20T09:19:43;1.53;;;0.90;;
14965;SDS011;7577;45.226;5.798;2023-03-20T09:22:14;1.50;;;1.00;;
14965;SDS011;7577;45.226;5.798;2023-03-20T09:24:45;1.20;;;1.10;;
14965;SDS011;7577;45.226;5.798;2023-03-20T09:27:15;1.10;;;1.00;;
14965;SDS011;7577;45.226;5.798;2023-03-20T09:29:45;0.70;;;0.70;;
14965;SDS011;7577;45.226;5.798;2023-03-20T09:32:16;2.40;;;1.10;;
14965;SDS011;7577;45.226;5.798;2023-03-20T09:34:46;1.00;;;1.00;;
14965;SDS011;7577;45.226;5.798;2023-03-20T09:37:16;1.20;;;0.90;;
14965;SDS011;7577;45.226;5.798;2023-03-20T09:39:46;0.87;;;0.80;;
14965;SDS011;7577;45.226;5.798;2023-03-20T09:42:20;0.93;;;0.90;;
14965;SDS011;7577;45.226;5.798;2023-03-20T09:44:56;0.90;;;0.80;;
14965;SDS011;7577;45.226;5.798;2023-03-20T09:47:37;0.93;;;0.87;;
14965;SDS011;7577;45.226;5.798;2023-03-20T09:50:11;1.33;;;1.13;;
14965;SDS011;7577;45.226;5.798;2023-03-20T09:52:53;1.27;;;0.90;;
14965;SDS011;7577;45.226;5.798;2023-03-20T09:55:30;1.43;;;1.10;;
14965;SDS011;7577;45.226;5.798;2023-03-20T09:58:04;1.20;;;1.00;;
14965;SDS011;7577;45.226;5.798;2023-03-20T10:00:41;0.93;;;0.90;;
14965;SDS011;7577;45.226;5.798;2023-03-20T10:03:16;1.33;;;1.13;;
14965;SDS011;7577;45.226;5.798;2023-03-20T10:05:49;1.53;;;0.90;;
14965;SDS011;7577;45.226;5.798;2023-03-20T10:08:25;1.10;;;1.00;;
14965;SDS011;7577;45.226;5.798;2023-03-20T10:11:00;1.30;;;1.07;;
14965;SDS011;7577;45.226;5.798;2023-03-20T10:16:39;1.97;;;0.90;;
14965;SDS011;7577;45.226;5.798;2023-03-20T10:19:16;1.00;;;0.90;;
14965;SDS011;7577;45.226;5.798;2023-03-20T10:21:54;1.73;;;1.10;;
14965;SDS011;7577;45.226;5.798;2023-03-20T10:24:26;0.93;;;0.90;;
14965;SDS011;7577;45.226;5.798;2023-03-20T10:27:00;1.60;;;1.20;;
14965;SDS011;7577;45.226;5.798;2023-03-20T10:29:35;1.30;;;1.10;;
14965;SDS011;7577;45.226;5.798;2023-03-20T10:32:15;1.30;;;1.20;;
14965;SDS011;7577;45.226;5.798;2023-03-20T10:34:54;1.10;;;1.00;;
14965;SDS011;7577;45.226;5.798;2023-03-20T10:37:30;2.33;;;1.10;;
14965;SDS011;7577;45.226;5.798;2023-03-20T10:40:25;0.83;;;0.80;;
14965;SDS011;7577;45.226;5.798;2023-03-20T10:42:59;1.47;;;1.10;;
14965;SDS011;7577;45.226;5.798;2023-03-20T10:45:36;1.30;;;1.10;;
14965;SDS011;7577;45.226;5.798;2023-03-20T10:48:11;1.60;;;1.30;;
14965;SDS011;7577;45.226;5.798;2023-03-20T10:50:47;1.50;;;1.00;;
14965;SDS011;7577;45.226;5.798;2023-03-20T10:53:22;0.87;;;0.87;;
14965;SDS011;7577;45.226;5.798;2023-03-20T10:55:55;1.13;;;1.03;;
14965;SDS011;7577;45.226;5.798;2023-03-20T10:58:27;1.47;;;1.10;;
14965;SDS011;7577;45.226;5.798;2023-03-20T11:01:00;1.13;;;1.00;;
14965;SDS011;7577;45.226;5.798;2023-03-20T11:03:31;1.43;;;1.20;;
14965;SDS011;7577;45.226;5.798;2023-03-20T11:06:06;2.77;;;1.20;;
14965;SDS011;7577;45.226;5.798;2023-03-20T11:08:40;1.63;;;1.40;;
14965;SDS011;7577;45.226;5.798;2023-03-20T11:11:13;1.53;;;1.20;;
14965;SDS011;7577;45.226;5.798;2023-03-20T11:13:50;1.13;;;1.10;;
14965;SDS011;7577;45.226;5.798;2023-03-20T11:16:21;1.53;;;1.10;;
14965;SDS011;7577;45.226;5.798;2023-03-20T11:18:53;1.43;;;1.17;;
14965;SDS011;7577;45.226;5.798;2023-03-20T11:21:24;1.20;;;1.10;;
14965;SDS011;7577;45.226;5.798;2023-03-20T11:24:08;1.57;;;0.70;;
14965;SDS011;7577;45.226;5.798;2023-03-20T11:26:48;2.40;;;1.07;;
14965;SDS011;7577;45.226;5.798;2023-03-20T11:29:20;1.30;;;1.20;;
14965;SDS011;7577;45.226;5.798;2023-03-20T11:31:52;2.07;;;1.23;;
14965;SDS011;7577;45.226;5.798;2023-03-20T11:34:24;1.33;;;1.10;;
14965;SDS011;7577;45.226;5.798;2023-03-20T11:36:58;1.10;;;1.00;;
14965;SDS011;7577;45.226;5.798;2023-03-20T11:39:30;1.17;;;1.07;;
14965;SDS011;7577;45.226;5.798;2023-03-20T11:42:01;1.40;;;1.30;;
14965;SDS011;7577;45.226;5.798;2023-03-20T11:44:34;1.60;;;1.20;;
14965;SDS011;7577;45.226;5.798;2023-03-20T11:47:05;1.97;;;1.03;;
14965;SDS011;7577;45.226;5.798;2023-03-20T11:49:44;1.10;;;1.00;;
14965;SDS011;7577;45.226;5.798;2023-03-20T11:52:19;1.20;;;1.10;;
14965;SDS011;7577;45.226;5.798;2023-03-20T11:54:52;2.43;;;1.33;;
14965;SDS011;7577;45.226;5.798;2023-03-20T11:57:27;1.33;;;1.23;;
14965;SDS011;7577;45.226;5.798;2023-03-20T12:00:02;1.27;;;1.17;;
14965;SDS011;7577;45.226;5.798;2023-03-20T12:02:35;1.20;;;1.10;;
14965;SDS011;7577;45.226;5.798;2023-03-20T12:05:22;1.17;;;1.07;;
14965;SDS011;7577;45.226;5.798;2023-03-20T12:08:00;1.27;;;1.17;;
14965;SDS011;7577;45.226;5.798;2023-03-20T12:10:33;1.53;;;1.23;;
14965;SDS011;7577;45.226;5.798;2023-03-20T12:13:09;1.40;;;1.30;;
14965;SDS011;7577;45.226;5.798;2023-03-20T12:15:41;1.03;;;0.90;;
14965;SDS011;7577;45.226;5.798;2023-03-20T12:18:15;1.40;;;1.30;;
14965;SDS011;7577;45.226;5.798;2023-03-20T12:20:53;1.57;;;1.20;;
14965;SDS011;7577;45.226;5.798;2023-03-20T12:23:29;1.70;;;1.20;;
14965;SDS011;7577;45.226;5.798;2023-03-20T12:26:03;1.43;;;1.20;;
14965;SDS011;7577;45.226;5.798;2023-03-20T12:28:37;1.50;;;1.40;;
14965;SDS011;7577;45.226;5.798;2023-03-20T12:31:14;1.70;;;1.60;;
14965;SDS011;7577;45.226;5.798;2023-03-20T12:33:48;1.27;;;1.17;;
14965;SDS011;7577;45.226;5.798;2023-03-20T12:36:24;1.40;;;1.20;;
14965;SDS011;7577;45.226;5.798;2023-03-20T12:38:57;1.17;;;0.93;;
14965;SDS011;7577;45.226;5.798;2023-03-20T12:41:31;1.20;;;1.10;;
14965;SDS011;7577;45.226;5.798;2023-03-20T12:44:09;1.13;;;1.07;;
14965;SDS011;7577;45.226;5.798;2023-03-20T12:46:52;1.37;;;1.27;;
14965;SDS011;7577;45.226;5.798;2023-03-20T12:49:34;1.30;;;1.10;;
14965;SDS011;7577;45.226;5.798;2023-03-20T12:52:12;1.43;;;1.27;;
14965;SDS011;7577;45.226;5.798;2023-03-20T12:54:50;1.30;;;1.20;;
14965;SDS011;7577;45.226;5.798;2023-03-20T12:57:30;1.23;;;1.17;;
14965;SDS011;7577;45.226;5.798;2023-03-20T13:00:11;1.10;;;1.10;;
14965;SDS011;7577;45.226;5.798;2023-03-20T13:02:55;1.50;;;1.40;;
14965;SDS011;7577;45.226;5.798;2023-03-20T13:05:32;1.67;;;1.10;;
14965;SDS011;7577;45.226;5.798;2023-03-20T13:08:16;1.63;;;1.30;;
14965;SDS011;7577;45.226;5.798;2023-03-20T13:10:52;1.40;;;1.23;;
14965;SDS011;7577;45.226;5.798;2023-03-20T13:13:27;2.20;;;1.30;;
14965;SDS011;7577;45.226;5.798;2023-03-20T13:16:03;1.97;;;1.50;;
14965;SDS011;7577;45.226;5.798;2023-03-20T13:18:43;1.23;;;1.20;;
14965;SDS011;7577;45.226;5.798;2023-03-20T13:21:21;1.40;;;1.30;;
14965;SDS011;7577;45.226;5.798;2023-03-20T13:23:55;1.20;;;1.10;;
14965;SDS011;7577;45.226;5.798;2023-03-20T13:26:29;1.67;;;1.57;;
14965;SDS011;7577;45.226;5.798;2023-03-20T13:29:04;1.17;;;1.17;;
14965;SDS011;7577;45.226;5.798;2023-03-20T13:31:39;1.50;;;1.40;;
14965;SDS011;7577;45.226;5.798;2023-03-20T13:34:19;1.40;;;1.30;;
14965;SDS011;7577;45.226;5.798;2023-03-20T13:36:59;1.20;;;1.10;;
14965;SDS011;7577;45.226;5.798;2023-03-20T13:39:43;1.40;;;1.10;;
14965;SDS011;7577;45.226;5.798;2023-03-20T13:42:17;1.57;;;1.43;;
14965;SDS011;7577;45.226;5.798;2023-03-20T13:44:49;1.13;;;1.00;;
14965;SDS011;7577;45.226;5.798;2023-03-20T13:47:22;0.90;;;0.90;;
14965;SDS011;7577;45.226;5.798;2023-03-20T13:50:03;1.30;;;1.20;;
14965;SDS011;7577;45.226;5.798;2023-03-20T13:52:36;1.70;;;1.37;;
14965;SDS011;7577;45.226;5.798;2023-03-20T13:55:13;1.03;;;1.00;;
14965;SDS011;7577;45.226;5.798;2023-03-20T13:57:55;1.20;;;1.10;;
14965;SDS011;7577;45.226;5.798;2023-03-20T14:00:30;1.43;;;1.33;;
14965;SDS011;7577;45.226;5.798;2023-03-20T14:03:10;1.20;;;1.10;;
14965;SDS011;7577;45.226;5.798;2023-03-20T14:05:45;1.33;;;1.20;;
14965;SDS011;7577;45.226;5.798;2023-03-20T14:11:26;1.30;;;1.20;;
14965;SDS011;7577;45.226;5.798;2023-03-20T14:14:04;1.40;;;1.30;;
14965;SDS011;7577;45.226;5.798;2023-03-20T14:16:36;1.63;;;1.30;;
14965;SDS011;7577;45.226;5.798;2023-03-20T14:19:07;1.40;;;1.30;;
14965;SDS011;7577;45.226;5.798;2023-03-20T14:21:44;1.90;;;1.10;;
14965;SDS011;7577;45.226;5.798;2023-03-20T14:24:26;1.10;;;1.00;;
14965;SDS011;7577;45.226;5.798;2023-03-20T14:26:58;1.50;;;1.40;;
14965;SDS011;7577;45.226;5.798;2023-03-20T14:29:33;1.50;;;1.40;;
14965;SDS011;7577;45.226;5.798;2023-03-20T14:32:21;1.40;;;1.30;;
14965;SDS011;7577;45.226;5.798;2023-03-20T14:35:00;1.23;;;1.13;;
14965;SDS011;7577;45.226;5.798;2023-03-20T14:40:41;1.00;;;1.00;;
14965;SDS011;7577;45.226;5.798;2023-03-20T14:43:14;1.20;;;1.20;;
14965;SDS011;7577;45.226;5.798;2023-03-20T14:45:54;1.40;;;1.30;;
14965;SDS011;7577;45.226;5.798;2023-03-20T14:48:29;1.20;;;1.10;;
14965;SDS011;7577;45.226;5.798;2023-03-20T14:51:05;1.37;;;1.27;;
14965;SDS011;7577;45.226;5.798;2023-03-20T14:53:39;1.20;;;1.10;;
14965;SDS011;7577;45.226;5.798;2023-03-20T14:56:10;1.87;;;1.10;;
14965;SDS011;7577;45.226;5.798;2023-03-20T14:58:52;1.70;;;1.60;;
14965;SDS011;7577;45.226;5.798;2023-03-20T15:01:27;1.23;;;1.13;;
14965;SDS011;7577;45.226;5.798;2023-03-20T15:04:23;1.40;;;1.30;;
14965;SDS011;7577;45.226;5.798;2023-03-20T15:07:00;1.20;;;1.10;;
14965;SDS011;7577;45.226;5.798;2023-03-20T15:09:34;2.00;;;1.20;;
14965;SDS011;7577;45.226;5.798;2023-03-20T15:12:07;1.67;;;1.30;;
14965;SDS011;7577;45.226;5.798;2023-03-20T15:14:41;1.23;;;1.13;;
14965;SDS011;7577;45.226;5.798;2023-03-20T15:17:17;1.20;;;1.10;;
14965;SDS011;7577;45.226;5.798;2023-03-20T15:19:49;1.27;;;1.17;;
14965;SDS011;7577;45.226;5.798;2023-03-20T15:22:20;1.30;;;1.20;;
14965;SDS011;7577;45.226;5.798;2023-03-20T15:24:52;1.40;;;1.30;;
14965;SDS011;7577;45.226;5.798;2023-03-20T15:27:25;1.23;;;1.13;;
14965;SDS011;7577;45.226;5.798;2023-03-20T15:29:56;1.70;;;1.07;;
14965;SDS011;7577;45.226;5.798;2023-03-20T15:32:35;1.57;;;1.10;;
14965;SDS011;7577;45.226;5.798;2023-03-20T15:35:09;1.03;;;1.00;;
14965;SDS011;7577;45.226;5.798;2023-03-20T15:37:40;1.20;;;1.10;;
14965;SDS011;7577;45.226;5.798;2023-03-20T15:40:20;1.30;;;1.20;;
14965;SDS011;7577;45.226;5.798;2023-03-20T15:42:52;1.43;;;1.33;;
14965;SDS011;7577;45.226;5.798;2023-03-20T15:45:25;1.53;;;1.43;;
14965;SDS011;7577;45.226;5.798;2023-03-20T15:48:00;1.40;;;1.30;;
14965;SDS011;7577;45.226;5.798;2023-03-20T15:50:32;1.27;;;1.17;;
14965;SDS011;7577;45.226;5.798;2023-03-20T15:53:04;1.23;;;1.23;;
14965;SDS011;7577;45.226;5.798;2023-03-20T15:55:37;1.47;;;1.37;;